KAL212 EDDB-ESSA
Flight info
| Callsign | KAL212 |
|---|---|
| Flight time | N/A |
| Altitude | 28000 |
| Route | GERGA4B/06L GERGA M725 RENKI Y89 USEDU DCT BANUB DCT POKEN DCT VIBAR Z227 NILUG |
| Aircraft | B77W/H-SDE1E2E3FGHIJ2J3J4J5M1RWXY/LB1D1 |
Departure
| Time | 2026-05-07 17:37 |
|---|---|
| Airport | Berlin Brandenburg Airport (EDDB) |
Arrival
| Time | N/A |
|---|---|
| Airport | Stockholm-Arlanda Airport (ESSA) |
| Time | Latitude | Longitude | Altitude | Speed | Heading |
|---|---|---|---|---|---|
| 2026-05-07 17:06 | 52.38566 | 13.52372 | 164 ft | 0 kts | 69° |
| 2026-05-07 17:29 | 52.38569 | 13.52386 | 164 ft | 5 kts | 70° |
| 2026-05-07 17:29 | 52.38566 | 13.52478 | 164 ft | 11 kts | 133° |
| 2026-05-07 17:30 | 52.38493 | 13.52547 | 164 ft | 13 kts | 155° |
| 2026-05-07 17:30 | 52.38404 | 13.52604 | 164 ft | 14 kts | 159° |
| 2026-05-07 17:30 | 52.38314 | 13.52660 | 164 ft | 14 kts | 159° |
| 2026-05-07 17:30 | 52.38232 | 13.52631 | 164 ft | 15 kts | 241° |
| 2026-05-07 17:31 | 52.38191 | 13.52463 | 164 ft | 17 kts | 249° |
| 2026-05-07 17:31 | 52.38146 | 13.52267 | 164 ft | 20 kts | 249° |
| 2026-05-07 17:31 | 52.38093 | 13.52047 | 164 ft | 22 kts | 249° |
| 2026-05-07 17:31 | 52.38036 | 13.51802 | 164 ft | 24 kts | 249° |
| 2026-05-07 17:32 | 52.37978 | 13.51561 | 165 ft | 19 kts | 248° |
| 2026-05-07 17:32 | 52.37929 | 13.51359 | 164 ft | 20 kts | 249° |
| 2026-05-07 17:32 | 52.37897 | 13.51130 | 164 ft | 22 kts | 266° |
| 2026-05-07 17:32 | 52.37893 | 13.50924 | 164 ft | 17 kts | 266° |
| 2026-05-07 17:33 | 52.37852 | 13.50743 | 164 ft | 18 kts | 238° |
| 2026-05-07 17:33 | 52.37778 | 13.50560 | 164 ft | 21 kts | 237° |
| 2026-05-07 17:33 | 52.37697 | 13.50354 | 163 ft | 21 kts | 237° |
| 2026-05-07 17:33 | 52.37618 | 13.50146 | 163 ft | 23 kts | 238° |
| 2026-05-07 17:34 | 52.37530 | 13.49918 | 163 ft | 25 kts | 237° |
| 2026-05-07 17:34 | 52.37434 | 13.49672 | 163 ft | 25 kts | 237° |
| 2026-05-07 17:34 | 52.37341 | 13.49432 | 163 ft | 25 kts | 238° |
| 2026-05-07 17:34 | 52.37249 | 13.49195 | 163 ft | 23 kts | 237° |
| 2026-05-07 17:35 | 52.37171 | 13.48995 | 163 ft | 20 kts | 237° |
| 2026-05-07 17:35 | 52.37096 | 13.48808 | 163 ft | 16 kts | 237° |
| 2026-05-07 17:35 | 52.37035 | 13.48664 | 163 ft | 17 kts | 226° |
| 2026-05-07 17:35 | 52.36947 | 13.48593 | 163 ft | 14 kts | 198° |
| 2026-05-07 17:36 | 52.36845 | 13.48558 | 160 ft | 15 kts | 175° |
| 2026-05-07 17:36 | 52.36813 | 13.48584 | 158 ft | 5 kts | 131° |
| 2026-05-07 17:36 | 52.36815 | 13.48689 | 158 ft | 12 kts | 71° |
| 2026-05-07 17:36 | 52.36849 | 13.48834 | 157 ft | 16 kts | 70° |
| 2026-05-07 17:37 | 52.36930 | 13.49185 | 156 ft | 54 kts | 69° |
| 2026-05-07 17:37 | 52.37172 | 13.50199 | 162 ft | 137 kts | 69° |
| 2026-05-07 17:37 | 52.37590 | 13.51967 | 394 ft | 180 kts | 69° |
| 2026-05-07 17:37 | 52.38040 | 13.53830 | 1401 ft | 176 kts | 66° |
| 2026-05-07 17:38 | 52.38497 | 13.55677 | 2426 ft | 173 kts | 67° |
| 2026-05-07 17:38 | 52.38924 | 13.57506 | 3333 ft | 172 kts | 68° |
| 2026-05-07 17:38 | 52.39362 | 13.59399 | 3964 ft | 189 kts | 68° |
| 2026-05-07 17:38 | 52.39869 | 13.61578 | 4258 ft | 221 kts | 68° |
| 2026-05-07 17:39 | 52.40454 | 13.64095 | 4710 ft | 247 kts | 68° |
| 2026-05-07 17:39 | 52.41091 | 13.66822 | 5009 ft | 264 kts | 68° |
| 2026-05-07 17:39 | 52.41753 | 13.69640 | 5000 ft | 264 kts | 68° |
| 2026-05-07 17:39 | 52.42408 | 13.72424 | 4986 ft | 260 kts | 68° |
| 2026-05-07 17:40 | 52.43055 | 13.75164 | 5007 ft | 257 kts | 68° |
| 2026-05-07 17:40 | 52.43711 | 13.77892 | 5010 ft | 256 kts | 64° |
| 2026-05-07 17:40 | 52.44765 | 13.80166 | 5014 ft | 253 kts | 40° |
| 2026-05-07 17:40 | 52.46143 | 13.82063 | 5012 ft | 263 kts | 41° |
| 2026-05-07 17:41 | 52.47494 | 13.84029 | 5025 ft | 264 kts | 41° |
| 2026-05-07 17:41 | 52.48862 | 13.86041 | 5589 ft | 265 kts | 41° |
| 2026-05-07 17:41 | 52.50238 | 13.88057 | 6675 ft | 267 kts | 41° |
| 2026-05-07 17:41 | 52.51633 | 13.90097 | 7700 ft | 270 kts | 41° |
| 2026-05-07 17:42 | 52.53058 | 13.92139 | 8658 ft | 273 kts | 36° |
| 2026-05-07 17:42 | 52.54808 | 13.93329 | 9411 ft | 278 kts | 8° |
| 2026-05-07 17:42 | 52.56761 | 13.93650 | 10179 ft | 286 kts | 5° |
| 2026-05-07 17:42 | 52.58803 | 13.93940 | 10775 ft | 307 kts | 5° |
| 2026-05-07 17:43 | 52.61039 | 13.94270 | 11039 ft | 339 kts | 5° |
| 2026-05-07 17:43 | 52.63433 | 13.94644 | 11614 ft | 358 kts | 5° |
| 2026-05-07 17:43 | 52.65950 | 13.95058 | 12681 ft | 367 kts | 5° |
| 2026-05-07 17:43 | 52.68500 | 13.95496 | 13931 ft | 371 kts | 5° |
| 2026-05-07 17:44 | 52.71086 | 13.95954 | 15013 ft | 377 kts | 6° |
| 2026-05-07 17:44 | 52.73715 | 13.96428 | 15872 ft | 385 kts | 6° |
| 2026-05-07 17:44 | 52.76394 | 13.96918 | 16089 ft | 391 kts | 6° |
| 2026-05-07 17:44 | 52.79117 | 13.97420 | 16681 ft | 397 kts | 5° |
| 2026-05-07 17:45 | 52.81866 | 13.97930 | 17890 ft | 399 kts | 5° |
| 2026-05-07 17:45 | 52.84643 | 13.98446 | 18945 ft | 403 kts | 5° |
| 2026-05-07 17:45 | 52.87446 | 13.98968 | 19903 ft | 408 kts | 5° |
| 2026-05-07 17:45 | 52.90247 | 13.99491 | 20823 ft | 413 kts | 6° |
| 2026-05-07 17:46 | 52.93125 | 14.00029 | 21775 ft | 418 kts | 5° |
| 2026-05-07 17:46 | 52.96031 | 14.00573 | 22715 ft | 423 kts | 5° |
| 2026-05-07 17:46 | 52.98980 | 14.01125 | 23601 ft | 429 kts | 5° |
| 2026-05-07 17:46 | 53.01962 | 14.01684 | 24377 ft | 433 kts | 5° |
| 2026-05-07 17:47 | 53.04973 | 14.02249 | 25159 ft | 437 kts | 6° |
| 2026-05-07 17:47 | 53.08002 | 14.02819 | 26005 ft | 437 kts | 6° |
| 2026-05-07 17:47 | 53.11015 | 14.03386 | 27102 ft | 432 kts | 6° |
| 2026-05-07 17:47 | 53.13986 | 14.03947 | 27898 ft | 428 kts | 7° |
| 2026-05-07 17:48 | 53.16953 | 14.04508 | 28090 ft | 429 kts | 7° |
| 2026-05-07 17:48 | 53.19926 | 14.05071 | 28098 ft | 431 kts | 7° |
| 2026-05-07 17:48 | 53.25870 | 14.06198 | 28090 ft | 433 kts | 7° |
| 2026-05-07 17:49 | 53.31837 | 14.07332 | 28088 ft | 430 kts | 7° |
| 2026-05-07 17:49 | 53.37769 | 14.08462 | 28093 ft | 429 kts | 7° |
| 2026-05-07 17:50 | 53.43707 | 14.09596 | 28099 ft | 430 kts | 7° |
| 2026-05-07 17:50 | 53.49629 | 14.10731 | 28103 ft | 432 kts | 7° |
| 2026-05-07 17:51 | 53.55621 | 14.11883 | 28106 ft | 434 kts | 7° |
| 2026-05-07 17:51 | 53.61631 | 14.13055 | 28115 ft | 434 kts | 6° |
| 2026-05-07 17:52 | 53.67635 | 14.14209 | 28107 ft | 435 kts | 6° |
| 2026-05-07 17:52 | 53.73656 | 14.15367 | 28130 ft | 436 kts | 6° |
| 2026-05-07 17:53 | 53.79657 | 14.16533 | 28132 ft | 438 kts | 6° |
| 2026-05-07 17:53 | 53.85719 | 14.17716 | 28132 ft | 439 kts | 6° |
| 2026-05-07 17:54 | 53.91795 | 14.18904 | 28124 ft | 440 kts | 6° |
| 2026-05-07 17:54 | 53.97893 | 14.20100 | 28132 ft | 442 kts | 6° |
| 2026-05-07 17:55 | 54.04022 | 14.21305 | 28131 ft | 444 kts | 6° |
| 2026-05-07 17:55 | 54.10167 | 14.22518 | 28122 ft | 445 kts | 6° |
| 2026-05-07 17:56 | 54.16265 | 14.23724 | 28121 ft | 444 kts | 6° |
| 2026-05-07 17:56 | 54.22399 | 14.24942 | 28120 ft | 444 kts | 6° |
| 2026-05-07 17:57 | 54.27496 | 14.25956 | 28123 ft | 444 kts | 6° |
| 2026-05-07 17:57 | 54.34675 | 14.27389 | 28123 ft | 445 kts | 6° |
| 2026-05-07 17:58 | 54.40826 | 14.28620 | 28124 ft | 445 kts | 6° |
| 2026-05-07 17:58 | 54.46878 | 14.30496 | 28124 ft | 446 kts | 15° |
| 2026-05-07 17:59 | 54.52677 | 14.34327 | 28138 ft | 447 kts | 23° |
| 2026-05-07 17:59 | 54.58366 | 14.38658 | 28134 ft | 448 kts | 23° |
| 2026-05-07 18:00 | 54.64083 | 14.42971 | 28130 ft | 448 kts | 23° |
| 2026-05-07 18:00 | 54.69773 | 14.47225 | 28128 ft | 449 kts | 22° |
| 2026-05-07 18:01 | 54.75507 | 14.51518 | 28130 ft | 449 kts | 22° |
| 2026-05-07 18:01 | 54.81245 | 14.55827 | 28131 ft | 450 kts | 22° |
| 2026-05-07 18:02 | 54.89995 | 14.61433 | 28132 ft | 449 kts | 18° |
| 2026-05-07 18:03 | 55.36820 | 14.90528 | 28096 ft | 446 kts | 19° |
| 2026-05-07 18:03 | 55.42648 | 14.94221 | 28132 ft | 444 kts | 19° |
| 2026-05-07 18:04 | 55.48434 | 14.97896 | 28130 ft | 441 kts | 19° |
| 2026-05-07 18:04 | 55.54191 | 15.01563 | 28131 ft | 439 kts | 19° |
| 2026-05-07 18:05 | 55.59887 | 15.05202 | 28131 ft | 438 kts | 19° |
| 2026-05-07 18:05 | 55.65611 | 15.08869 | 28140 ft | 438 kts | 19° |
| 2026-05-07 18:06 | 55.71339 | 15.12551 | 28133 ft | 438 kts | 19° |
| 2026-05-07 18:06 | 55.77065 | 15.16243 | 28134 ft | 438 kts | 19° |